Time;durP1;ratioP1;P1;durP2;ratioP2;P2;SDS_P1;SDS_P2;PMS_P1;PMS_P2;Temp;Humidity;BMP_temperature;BMP_pressure;BME280_temperature;BME280_humidity;BME280_pressure;Samples;Min_cycle;Max_cycle;Signal;HPM_P1;HPM_P2
2022/08/23 00:02:02;;;;;;;5.87;3.50;;;;;;;;;;5064610;28;20783;-62
2022/08/23 00:04:34;;;;;;;4.87;3.50;;;;;;;;;;5058208;28;20328;-62
2022/08/23 00:07:02;;;;;;;4.67;3.90;;;;;;;;;;5054828;28;20266;-62
2022/08/23 00:09:30;;;;;;;4.43;3.63;;;;;;;;;;5054633;28;20291;-62
2022/08/23 00:11:57;;;;;;;4.30;3.80;;;;;;;;;;5058958;28;20786;-63
2022/08/23 00:14:27;;;;;;;6.73;3.63;;;;;;;;;;5066716;28;20201;-61
2022/08/23 00:16:55;;;;;;;5.67;3.90;;;;;;;;;;5070203;28;20403;-62
2022/08/23 00:19:23;;;;;;;4.03;3.73;;;;;;;;;;5059875;28;20213;-62
2022/08/23 00:21:51;;;;;;;3.67;3.33;;;;;;;;;;5060279;28;20224;-62
2022/08/23 00:24:19;;;;;;;4.70;3.60;;;;;;;;;;5068777;28;20225;-61
2022/08/23 00:26:49;;;;;;;4.70;3.50;;;;;;;;;;5065160;28;20201;-62
2022/08/23 00:29:17;;;;;;;4.87;3.80;;;;;;;;;;5073312;28;20700;-62
2022/08/23 00:31:45;;;;;;;5.30;3.87;;;;;;;;;;5069140;28;20642;-62
2022/08/23 00:34:12;;;;;;;4.53;3.30;;;;;;;;;;5063479;28;20209;-62
2022/08/23 00:36:42;;;;;;;6.13;3.67;;;;;;;;;;5062528;28;20201;-62
2022/08/23 00:39:10;;;;;;;7.30;3.80;;;;;;;;;;5058084;28;20211;-62
2022/08/23 00:41:37;;;;;;;3.97;3.63;;;;;;;;;;5063948;28;20229;-62
2022/08/23 00:49:45;;;;;;;4.07;3.77;;;;;;;;;;5081732;28;20205;-62
2022/08/23 00:52:16;;;;;;;3.87;3.50;;;;;;;;;;5069791;28;20197;-62
2022/08/23 00:54:44;;;;;;;4.73;3.60;;;;;;;;;;5062475;28;20258;-62
2022/08/23 00:57:14;;;;;;;4.33;3.83;;;;;;;;;;5059447;28;20201;-61
2022/08/23 00:59:41;;;;;;;4.20;3.67;;;;;;;;;;5088420;28;20200;-61
2022/08/23 01:02:09;;;;;;;7.63;3.90;;;;;;;;;;5066970;28;20204;-60
2022/08/23 01:04:43;;;;;;;4.23;3.53;;;;;;;;;;5062232;28;20585;-62
2022/08/23 01:07:13;;;;;;;4.57;3.97;;;;;;;;;;5053894;28;20304;-62
2022/08/23 01:09:41;;;;;;;5.00;3.70;;;;;;;;;;5061098;28;20236;-63
2022/08/23 01:12:14;;;;;;;7.73;4.90;;;;;;;;;;5059003;28;20205;-63
2022/08/23 01:14:51;;;;;;;8.53;6.60;;;;;;;;;;5060645;28;20211;-61
2022/08/23 01:17:24;;;;;;;5.90;4.70;;;;;;;;;;5058877;28;20289;-63
2022/08/23 01:19:57;;;;;;;4.50;4.10;;;;;;;;;;5050641;28;20209;-61
2022/08/23 01:22:33;;;;;;;5.83;4.53;;;;;;;;;;5060239;28;20212;-61
2022/08/23 01:25:01;;;;;;;5.20;4.70;;;;;;;;;;5082641;28;20224;-61
2022/08/23 01:27:35;;;;;;;4.43;4.03;;;;;;;;;;5078975;28;20685;-61
2022/08/23 01:30:04;;;;;;;5.30;3.83;;;;;;;;;;5087221;28;20221;-63
2022/08/23 01:32:32;;;;;;;4.73;4.30;;;;;;;;;;5058129;28;20533;-61
2022/08/23 01:35:00;;;;;;;4.40;4.00;;;;;;;;;;5062118;28;20201;-61
2022/08/23 01:37:27;;;;;;;4.17;3.70;;;;;;;;;;5054411;28;20271;-61
2022/08/23 01:39:55;;;;;;;4.50;3.90;;;;;;;;;;5069175;28;20242;-62
2022/08/23 01:42:22;;;;;;;5.03;3.80;;;;;;;;;;5061795;28;20324;-61
2022/08/23 01:44:50;;;;;;;6.40;4.20;;;;;;;;;;5055010;28;20221;-62
2022/08/23 01:47:17;;;;;;;6.43;3.70;;;;;;;;;;5063165;28;20270;-62
2022/08/23 01:49:45;;;;;;;5.03;4.10;;;;;;;;;;5063221;28;20740;-61
2022/08/23 01:52:14;;;;;;;5.07;4.17;;;;;;;;;;5054021;28;20205;-63
2022/08/23 01:54:42;;;;;;;5.37;3.67;;;;;;;;;;5058173;28;20593;-61
2022/08/23 01:57:09;;;;;;;4.50;3.93;;;;;;;;;;5050886;28;20205;-60
2022/08/23 01:59:38;;;;;;;4.53;4.07;;;;;;;;;;5054022;28;20205;-61
2022/08/23 02:02:05;;;;;;;5.37;4.07;;;;;;;;;;5067438;28;20941;-61
2022/08/23 02:04:33;;;;;;;4.43;4.13;;;;;;;;;;5061390;28;22995;-60
2022/08/23 02:07:00;;;;;;;6.10;4.50;;;;;;;;;;5051417;28;20205;-60
2022/08/23 02:09:28;;;;;;;5.67;4.70;;;;;;;;;;5066850;28;20212;-62
2022/08/23 02:11:55;;;;;;;6.17;4.90;;;;;;;;;;5067316;28;20221;-60
2022/08/23 02:14:23;;;;;;;5.10;4.50;;;;;;;;;;5061995;28;20325;-60
2022/08/23 02:16:51;;;;;;;4.83;4.40;;;;;;;;;;5061863;28;20289;-61
2022/08/23 02:19:32;;;;;;;6.37;4.90;;;;;;;;;;5074392;28;20338;-62
2022/08/23 02:21:59;;;;;;;5.60;4.90;;;;;;;;;;5060987;28;20239;-63
2022/08/23 02:24:27;;;;;;;7.07;4.77;;;;;;;;;;5060430;28;20224;-61
2022/08/23 02:26:55;;;;;;;8.33;5.97;;;;;;;;;;5056225;28;20214;-61
2022/08/23 02:29:23;;;;;;;7.20;6.00;;;;;;;;;;5074884;28;20209;-61
2022/08/23 02:31:52;;;;;;;6.47;5.63;;;;;;;;;;5059103;28;20973;-62
2022/08/23 02:34:21;;;;;;;4.53;4.13;;;;;;;;;;5044517;28;20228;-61
2022/08/23 02:36:51;;;;;;;4.33;3.93;;;;;;;;;;5060340;28;20220;-62
2022/08/23 02:39:18;;;;;;;4.00;3.50;;;;;;;;;;5051856;28;20209;-62
2022/08/23 02:41:46;;;;;;;4.20;3.83;;;;;;;;;;5055672;28;20224;-61
2022/08/23 02:44:14;;;;;;;4.33;3.87;;;;;;;;;;5062369;28;20229;-60
2022/08/23 02:46:41;;;;;;;8.30;4.03;;;;;;;;;;5058278;28;20204;-61
2022/08/23 02:49:09;;;;;;;5.03;4.10;;;;;;;;;;5055825;28;20262;-61
2022/08/23 02:51:36;;;;;;;5.13;3.93;;;;;;;;;;5062001;28;20228;-61
2022/08/23 02:54:04;;;;;;;4.73;4.33;;;;;;;;;;5055082;28;20225;-61
2022/08/23 02:56:32;;;;;;;4.80;4.40;;;;;;;;;;5054414;28;20208;-61
2022/08/23 02:59:00;;;;;;;5.87;4.07;;;;;;;;;;5073857;28;20728;-61
2022/08/23 03:01:29;;;;;;;6.23;4.47;;;;;;;;;;5057394;28;20228;-61
2022/08/23 03:03:57;;;;;;;4.87;4.27;;;;;;;;;;5055465;28;20220;-63
2022/08/23 03:06:24;;;;;;;4.00;3.70;;;;;;;;;;5055331;28;20209;-62
2022/08/23 03:08:56;;;;;;;4.57;4.17;;;;;;;;;;5053186;28;20212;-60
2022/08/23 03:11:24;;;;;;;4.73;4.33;;;;;;;;;;5074080;28;20229;-60
2022/08/23 03:13:52;;;;;;;4.80;4.40;;;;;;;;;;5072330;28;20205;-61
2022/08/23 03:16:20;;;;;;;5.23;4.30;;;;;;;;;;5054021;28;20204;-60
2022/08/23 03:18:48;;;;;;;4.83;4.43;;;;;;;;;;5059603;28;20674;-61
2022/08/23 03:21:16;;;;;;;5.67;5.17;;;;;;;;;;5063432;28;20221;-62
2022/08/23 03:23:44;;;;;;;5.27;4.77;;;;;;;;;;5067890;28;20232;-60
2022/08/23 03:26:12;;;;;;;5.87;5.13;;;;;;;;;;5062075;28;20230;-62
2022/08/23 03:28:40;;;;;;;5.60;5.10;;;;;;;;;;5052864;28;20212;-61
2022/08/23 03:31:08;;;;;;;6.93;4.50;;;;;;;;;;5058328;28;20233;-59
2022/08/23 03:33:36;;;;;;;5.00;4.50;;;;;;;;;;5068713;28;20208;-60
2022/08/23 03:36:05;;;;;;;6.53;5.50;;;;;;;;;;5074828;28;20810;-61
2022/08/23 03:38:33;;;;;;;6.07;5.47;;;;;;;;;;5073244;28;20205;-61
2022/08/23 03:41:00;;;;;;;5.93;5.43;;;;;;;;;;5063297;28;20278;-62
2022/08/23 03:43:28;;;;;;;5.57;5.07;;;;;;;;;;5058566;28;20220;-63
2022/08/23 03:45:55;;;;;;;5.87;4.27;;;;;;;;;;5055376;28;20205;-62
2022/08/23 03:48:23;;;;;;;5.33;4.83;;;;;;;;;;5063921;28;20193;-63
2022/08/23 03:50:51;;;;;;;6.10;5.03;;;;;;;;;;5054756;28;20223;-60
2022/08/23 03:53:22;;;;;;;5.77;5.20;;;;;;;;;;5060654;28;20295;-63
2022/08/23 03:55:52;;;;;;;6.97;5.50;;;;;;;;;;5054890;28;20619;-62
2022/08/23 03:58:20;;;;;;;5.07;4.67;;;;;;;;;;5065322;28;20204;-62
2022/08/23 04:00:48;;;;;;;6.17;4.70;;;;;;;;;;5059009;28;20294;-62
2022/08/23 04:03:15;;;;;;;7.87;5.17;;;;;;;;;;5062054;28;20658;-63
2022/08/23 04:05:43;;;;;;;5.47;4.97;;;;;;;;;;5070409;28;20224;-63
2022/08/23 04:08:11;;;;;;;5.20;4.70;;;;;;;;;;5069834;28;20201;-62
2022/08/23 04:10:38;;;;;;;5.30;4.80;;;;;;;;;;5065102;28;20212;-61
2022/08/23 04:13:07;;;;;;;5.83;4.73;;;;;;;;;;5064476;28;20209;-62
2022/08/23 04:15:35;;;;;;;5.40;4.90;;;;;;;;;;5065527;28;20288;-62
2022/08/23 04:18:03;;;;;;;5.43;4.93;;;;;;;;;;5064792;28;20244;-63
2022/08/23 04:20:33;;;;;;;5.53;5.00;;;;;;;;;;5058954;28;20228;-62
2022/08/23 04:23:01;;;;;;;5.80;5.10;;;;;;;;;;5055374;28;20288;-61
2022/08/23 04:25:30;;;;;;;6.27;4.37;;;;;;;;;;5063690;28;20223;-62
2022/08/23 04:28:01;;;;;;;5.00;4.50;;;;;;;;;;5063744;28;20221;-61
2022/08/23 04:30:29;;;;;;;4.70;4.20;;;;;;;;;;5068914;28;20332;-61
2022/08/23 04:32:57;;;;;;;5.07;4.57;;;;;;;;;;5049167;28;20266;-62
2022/08/23 04:35:25;;;;;;;4.90;4.50;;;;;;;;;;5046005;28;20216;-61
2022/08/23 04:37:53;;;;;;;5.83;4.77;;;;;;;;;;5062967;28;22786;-61
2022/08/23 04:43:07;;;;;;;6.03;4.40;;;;;;;;;;5070172;28;20941;-60
2022/08/23 04:45:37;;;;;;;5.40;4.90;;;;;;;;;;5056223;28;20247;-62
2022/08/23 04:48:05;;;;;;;6.87;5.30;;;;;;;;;;5045162;28;20579;-61
2022/08/23 04:50:39;;;;;;;4.97;4.57;;;;;;;;;;5044456;28;20230;-61
2022/08/23 04:53:06;;;;;;;6.33;4.77;;;;;;;;;;5047698;28;20201;-61
2022/08/23 04:55:34;;;;;;;5.10;4.60;;;;;;;;;;5046936;28;20623;-60
2022/08/23 04:58:03;;;;;;;5.77;5.20;;;;;;;;;;5065258;28;20205;-60
2022/08/23 05:00:30;;;;;;;6.33;4.87;;;;;;;;;;5044898;28;20252;-60
2022/08/23 05:02:57;;;;;;;7.20;5.13;;;;;;;;;;5046421;28;20209;-61
2022/08/23 05:05:26;;;;;;;6.87;4.97;;;;;;;;;;5067185;28;20282;-61
2022/08/23 05:07:54;;;;;;;5.77;5.13;;;;;;;;;;5063039;28;20678;-61
2022/08/23 05:10:21;;;;;;;5.03;4.60;;;;;;;;;;5057074;28;20348;-61
2022/08/23 05:12:49;;;;;;;5.30;4.90;;;;;;;;;;5058148;28;20706;-61
2022/08/23 05:15:16;;;;;;;5.67;5.13;;;;;;;;;;5068998;28;20201;-60
2022/08/23 05:17:44;;;;;;;6.57;4.90;;;;;;;;;;5040035;28;20448;-63
2022/08/23 05:20:11;;;;;;;6.37;4.83;;;;;;;;;;5039117;28;20271;-60
2022/08/23 05:22:40;;;;;;;5.43;4.93;;;;;;;;;;5058666;28;20201;-60
2022/08/23 05:25:08;;;;;;;7.50;4.93;;;;;;;;;;5044911;28;20236;-60
2022/08/23 05:27:36;;;;;;;5.97;4.77;;;;;;;;;;5065036;28;20193;-60
2022/08/23 05:30:05;;;;;;;9.23;5.27;;;;;;;;;;5070073;28;20231;-61
2022/08/23 05:32:32;;;;;;;7.97;4.73;;;;;;;;;;5066354;28;20630;-63
2022/08/23 05:35:00;;;;;;;5.90;4.87;;;;;;;;;;5046906;28;20216;-63
2022/08/23 05:37:27;;;;;;;10.50;5.07;;;;;;;;;;5061425;28;20262;-63
2022/08/23 05:39:55;;;;;;;6.87;4.93;;;;;;;;;;5047788;28;20359;-62
2022/08/23 05:42:23;;;;;;;7.53;5.50;;;;;;;;;;5048970;28;21700;-61
2022/08/23 05:44:51;;;;;;;5.53;4.70;;;;;;;;;;5040357;28;20305;-62
2022/08/23 05:47:20;;;;;;;4.77;4.30;;;;;;;;;;5049305;28;20213;-62
2022/08/23 05:49:51;;;;;;;4.47;3.87;;;;;;;;;;5039326;28;20224;-62
2022/08/23 05:52:19;;;;;;;6.85;3.97;;;;;;;;;;5047447;28;20217;-62
2022/08/23 05:54:49;;;;;;;5.90;4.40;;;;;;;;;;5051240;28;20218;-61
2022/08/23 05:57:19;;;;;;;5.03;4.53;;;;;;;;;;5031602;28;20212;-61
2022/08/23 05:59:46;;;;;;;4.87;4.47;;;;;;;;;;5046382;28;20224;-63
2022/08/23 06:02:13;;;;;;;5.10;4.63;;;;;;;;;;5039487;28;20213;-62
2022/08/23 06:04:41;;;;;;;6.97;4.63;;;;;;;;;;5064317;28;20975;-61
2022/08/23 06:07:09;;;;;;;4.90;4.40;;;;;;;;;;5048604;28;20205;-61
2022/08/23 06:09:37;;;;;;;4.53;4.23;;;;;;;;;;5048173;28;20237;-60
2022/08/23 06:12:05;;;;;;;4.50;4.10;;;;;;;;;;5046469;28;20638;-60
2022/08/23 06:14:32;;;;;;;5.70;4.83;;;;;;;;;;5067990;28;20560;-61
2022/08/23 06:17:00;;;;;;;4.90;4.40;;;;;;;;;;5049493;28;20227;-61
2022/08/23 06:19:27;;;;;;;4.53;4.13;;;;;;;;;;5063810;28;20201;-62
2022/08/23 06:21:54;;;;;;;5.73;4.50;;;;;;;;;;5070212;28;20232;-61
2022/08/23 06:24:22;;;;;;;6.47;4.40;;;;;;;;;;5061893;28;20231;-62
2022/08/23 06:26:50;;;;;;;6.43;4.57;;;;;;;;;;5058874;28;20748;-61
2022/08/23 06:29:18;;;;;;;4.60;4.23;;;;;;;;;;5062876;28;20204;-60
2022/08/23 06:31:47;;;;;;;4.63;4.10;;;;;;;;;;5061964;28;20630;-61
2022/08/23 06:34:15;;;;;;;5.70;5.07;;;;;;;;;;5060922;28;21022;-62
2022/08/23 06:36:42;;;;;;;6.27;4.50;;;;;;;;;;5073229;28;20197;-61
2022/08/23 06:39:11;;;;;;;5.27;4.73;;;;;;;;;;5063797;28;20212;-61
2022/08/23 06:41:39;;;;;;;5.50;4.10;;;;;;;;;;5062281;28;20221;-60
2022/08/23 06:44:07;;;;;;;6.65;4.15;;;;;;;;;;5063303;28;20216;-61
2022/08/23 06:46:34;;;;;;;6.13;3.90;;;;;;;;;;5060880;28;20205;-61
2022/08/23 06:49:04;;;;;;;6.32;4.28;;;;;;;;;;5064577;28;20258;-63
2022/08/23 06:51:31;;;;;;;4.18;3.53;;;;;;;;;;5058465;28;20470;-62
2022/08/23 06:54:00;;;;;;;5.15;3.38;;;;;;;;;;5062129;28;20197;-61
2022/08/23 06:56:29;;;;;;;5.90;3.40;;;;;;;;;;5057230;28;20217;-62
2022/08/23 06:58:57;;;;;;;4.88;3.28;;;;;;;;;;5060268;28;20208;-61
2022/08/23 07:01:27;;;;;;;3.40;3.10;;;;;;;;;;5072292;28;20757;-61
2022/08/23 07:04:13;;;;;;;3.80;3.00;;;;;;;;;;5054394;28;20211;-60
2022/08/23 07:06:40;;;;;;;3.05;2.78;;;;;;;;;;5055380;28;20211;-61
2022/08/23 07:09:08;;;;;;;5.10;2.75;;;;;;;;;;5058318;28;20248;-61
2022/08/23 07:11:35;;;;;;;4.22;2.60;;;;;;;;;;5060197;28;20240;-61
2022/08/23 07:14:05;;;;;;;4.03;2.42;;;;;;;;;;5052020;28;20709;-62
2022/08/23 07:16:34;;;;;;;3.40;2.65;;;;;;;;;;5054866;28;20220;-60
2022/08/23 07:19:02;;;;;;;2.80;2.20;;;;;;;;;;5045211;28;20591;-62
2022/08/23 07:21:30;;;;;;;3.55;2.60;;;;;;;;;;5051354;28;20811;-61
2022/08/23 07:23:57;;;;;;;3.95;2.22;;;;;;;;;;5048087;28;20213;-63
2022/08/23 07:26:25;;;;;;;2.72;2.08;;;;;;;;;;5047204;28;20277;-62
2022/08/23 07:28:55;;;;;;;2.47;1.95;;;;;;;;;;5047755;28;20217;-62
2022/08/23 07:31:29;;;;;;;3.97;2.00;;;;;;;;;;5052472;28;20229;-61
2022/08/23 07:33:58;;;;;;;3.38;2.28;;;;;;;;;;5058363;28;20236;-62
2022/08/23 07:36:26;;;;;;;7.13;1.98;;;;;;;;;;5058089;28;20209;-61
2022/08/23 07:38:55;;;;;;;6.45;2.90;;;;;;;;;;5063365;28;20208;-61
2022/08/23 07:41:29;;;;;;;3.70;2.95;;;;;;;;;;5067659;28;20219;-61
2022/08/23 07:44:01;;;;;;;2.50;2.00;;;;;;;;;;5079650;28;20247;-62
2022/08/23 07:46:29;;;;;;;2.78;1.88;;;;;;;;;;5085112;28;20316;-61
2022/08/23 07:48:58;;;;;;;3.50;1.83;;;;;;;;;;5068821;28;20201;-61
2022/08/23 07:51:26;;;;;;;2.97;1.80;;;;;;;;;;5058794;28;20217;-61
2022/08/23 07:53:54;;;;;;;2.20;2.10;;;;;;;;;;5072578;28;20199;-61
2022/08/23 07:56:22;;;;;;;2.15;1.92;;;;;;;;;;5077790;28;20294;-61
2022/08/23 07:58:49;;;;;;;3.90;2.22;;;;;;;;;;5062289;28;20640;-63
2022/08/23 08:01:19;;;;;;;3.72;1.60;;;;;;;;;;5068647;28;20316;-61
2022/08/23 08:03:48;;;;;;;4.13;1.85;;;;;;;;;;5062250;28;20237;-61
2022/08/23 08:06:18;;;;;;;3.78;1.80;;;;;;;;;;5075978;28;20274;-63
2022/08/23 08:08:47;;;;;;;3.83;2.20;;;;;;;;;;5080504;28;20201;-62
2022/08/23 08:11:15;;;;;;;4.63;2.00;;;;;;;;;;5072175;28;20231;-61
2022/08/23 08:13:44;;;;;;;2.10;1.90;;;;;;;;;;5062534;28;20210;-61
2022/08/23 08:16:19;;;;;;;2.70;2.10;;;;;;;;;;5064442;28;20615;-61
2022/08/23 08:18:46;;;;;;;5.13;2.13;;;;;;;;;;5060716;28;20205;-61
2022/08/23 08:21:15;;;;;;;3.50;1.85;;;;;;;;;;5064201;28;20229;-61
2022/08/23 08:23:42;;;;;;;3.42;2.03;;;;;;;;;;5055676;28;20247;-60
2022/08/23 08:26:10;;;;;;;3.78;1.83;;;;;;;;;;5062686;28;20224;-62
2022/08/23 08:28:38;;;;;;;3.90;2.00;;;;;;;;;;5052788;28;20842;-61
2022/08/23 08:31:06;;;;;;;3.80;1.98;;;;;;;;;;5080587;28;20278;-61
2022/08/23 08:33:34;;;;;;;3.03;1.98;;;;;;;;;;5056660;28;20193;-61
2022/08/23 08:36:02;;;;;;;2.92;1.77;;;;;;;;;;5063383;28;20200;-63
2022/08/23 08:38:31;;;;;;;3.03;2.00;;;;;;;;;;5064042;28;20750;-63
2022/08/23 08:41:15;;;;;;;2.10;1.90;;;;;;;;;;5076880;28;20229;-62
2022/08/23 08:43:42;;;;;;;3.05;2.05;;;;;;;;;;5079277;28;20212;-61
2022/08/23 08:46:22;;;;;;;2.47;2.10;;;;;;;;;;5063099;28;20696;-62
2022/08/23 08:48:53;;;;;;;2.80;1.80;;;;;;;;;;5080279;28;20292;-61
2022/08/23 08:51:37;;;;;;;2.80;2.22;;;;;;;;;;5065151;28;20221;-62
2022/08/23 08:54:07;;;;;;;2.38;1.90;;;;;;;;;;5065194;28;20216;-63
2022/08/23 08:56:36;;;;;;;3.67;2.00;;;;;;;;;;5059633;28;20267;-61
2022/08/23 08:59:05;;;;;;;5.10;1.80;;;;;;;;;;5080132;28;20238;-61
2022/08/23 09:01:34;;;;;;;1.95;1.85;;;;;;;;;;5087426;28;20827;-61
2022/08/23 09:04:03;;;;;;;2.20;2.00;;;;;;;;;;5070778;28;20231;-60
2022/08/23 09:06:49;;;;;;;2.42;2.10;;;;;;;;;;5062054;28;20229;-62
2022/08/23 09:09:34;;;;;;;2.55;2.10;;;;;;;;;;5048603;28;20579;-61
2022/08/23 09:12:21;;;;;;;2.53;2.03;;;;;;;;;;5060358;28;20730;-61
2022/08/23 09:15:07;;;;;;;2.78;2.00;;;;;;;;;;5070433;28;20201;-62
2022/08/23 09:17:40;;;;;;;3.40;2.13;;;;;;;;;;5080346;28;20211;-62
2022/08/23 09:20:11;;;;;;;3.92;1.65;;;;;;;;;;5047663;28;20231;-62
2022/08/23 09:22:43;;;;;;;3.95;1.90;;;;;;;;;;5060663;28;20197;-62
2022/08/23 09:25:11;;;;;;;3.00;1.95;;;;;;;;;;5061972;28;20228;-60
2022/08/23 09:27:42;;;;;;;3.80;2.10;;;;;;;;;;5065521;28;20196;-61
2022/08/23 09:30:11;;;;;;;2.30;2.10;;;;;;;;;;5060073;28;20517;-61
2022/08/23 09:32:42;;;;;;;3.05;1.85;;;;;;;;;;5057966;28;20676;-61
2022/08/23 09:35:24;;;;;;;2.58;1.90;;;;;;;;;;5060664;28;20234;-61
2022/08/23 09:38:00;;;;;;;2.05;1.83;;;;;;;;;;5065756;28;20269;-61
2022/08/23 09:40:48;;;;;;;4.75;1.90;;;;;;;;;;5060021;28;20227;-60
2022/08/23 09:43:22;;;;;;;4.40;2.13;;;;;;;;;;5065164;28;20208;-62
2022/08/23 09:45:49;;;;;;;2.83;1.88;;;;;;;;;;5078901;28;20274;-62
2022/08/23 09:48:32;;;;;;;3.50;1.55;;;;;;;;;;5067587;28;20213;-61
2022/08/23 09:51:22;;;;;;;4.18;2.00;;;;;;;;;;5050992;28;20217;-62
2022/08/23 09:54:02;;;;;;;3.38;1.85;;;;;;;;;;5058288;28;21755;-61
2022/08/23 09:56:31;;;;;;;4.07;2.00;;;;;;;;;;5061185;28;20201;-61
2022/08/23 09:58:58;;;;;;;3.20;1.90;;;;;;;;;;5055033;28;20212;-61
2022/08/23 10:01:27;;;;;;;3.58;2.20;;;;;;;;;;5061166;28;20232;-63
2022/08/23 10:04:21;;;;;;;3.53;1.80;;;;;;;;;;5061622;28;20204;-62
2022/08/23 10:06:49;;;;;;;1.92;1.75;;;;;;;;;;5060182;28;20240;-62
2022/08/23 10:09:23;;;;;;;2.72;1.90;;;;;;;;;;5058544;28;20203;-61
2022/08/23 10:11:51;;;;;;;4.05;2.00;;;;;;;;;;5066396;28;20227;-61
2022/08/23 10:14:19;;;;;;;3.35;2.30;;;;;;;;;;5058017;28;22286;-61
2022/08/23 10:17:07;;;;;;;3.60;2.00;;;;;;;;;;5057831;28;20212;-62
2022/08/23 10:19:54;;;;;;;2.03;1.80;;;;;;;;;;5053540;28;20204;-61
2022/08/23 10:22:23;;;;;;;2.72;1.90;;;;;;;;;;5069116;28;20716;-61
2022/08/23 10:24:57;;;;;;;3.10;2.05;;;;;;;;;;5061540;28;20209;-62
2022/08/23 10:30:15;;;;;;;3.10;1.80;;;;;;;;;;5078087;28;20724;-60
2022/08/23 10:32:49;;;;;;;2.15;1.50;;;;;;;;;;5089021;28;20205;-62
2022/08/23 10:35:16;;;;;;;2.30;1.95;;;;;;;;;;5066187;28;20262;-62
2022/08/23 10:37:47;;;;;;;1.60;1.50;;;;;;;;;;5059622;28;20205;-62
2022/08/23 10:40:17;;;;;;;2.38;1.88;;;;;;;;;;5054865;28;20776;-60
2022/08/23 10:43:00;;;;;;;1.88;1.77;;;;;;;;;;5064089;28;20236;-61
2022/08/23 10:45:30;;;;;;;2.67;2.00;;;;;;;;;;5043932;28;20310;-61
2022/08/23 10:48:16;;;;;;;2.58;1.60;;;;;;;;;;5048640;28;20404;-60
2022/08/23 10:50:51;;;;;;;3.83;2.08;;;;;;;;;;5044065;28;22828;-61
2022/08/23 10:53:24;;;;;;;2.45;1.50;;;;;;;;;;5039901;28;20212;-63
2022/08/23 10:56:04;;;;;;;2.10;1.65;;;;;;;;;;5044074;28;20216;-61
2022/08/23 10:58:51;;;;;;;2.67;1.73;;;;;;;;;;5042999;28;20212;-61
2022/08/23 11:01:31;;;;;;;1.70;1.60;;;;;;;;;;5048685;28;20225;-60
2022/08/23 11:04:06;;;;;;;2.00;1.80;;;;;;;;;;5036926;28;20752;-61
2022/08/23 11:06:38;;;;;;;2.47;1.58;;;;;;;;;;5049010;28;20606;-61
2022/08/23 11:09:27;;;;;;;3.20;2.03;;;;;;;;;;5050185;28;20701;-62
2022/08/23 11:12:14;;;;;;;2.33;1.60;;;;;;;;;;5062220;28;20698;-62
2022/08/23 11:14:53;;;;;;;3.58;1.70;;;;;;;;;;5058754;28;20212;-62
2022/08/23 11:17:29;;;;;;;1.98;1.73;;;;;;;;;;5047468;28;20227;-61
2022/08/23 11:20:01;;;;;;;2.30;1.65;;;;;;;;;;5046607;28;20204;-61
2022/08/23 11:22:30;;;;;;;2.78;1.50;;;;;;;;;;5052780;28;20205;-60
2022/08/23 11:25:27;;;;;;;2.80;1.70;;;;;;;;;;5040920;28;20625;-61
2022/08/23 11:28:21;;;;;;;2.47;1.60;;;;;;;;;;5019881;28;21036;-63
2022/08/23 11:30:49;;;;;;;2.75;1.40;;;;;;;;;;5026086;28;20234;-61
2022/08/23 11:33:20;;;;;;;3.03;1.70;;;;;;;;;;5052590;28;20208;-61
2022/08/23 11:35:52;;;;;;;2.00;1.58;;;;;;;;;;5048368;28;20263;-63
2022/08/23 11:38:38;;;;;;;3.55;1.63;;;;;;;;;;5048887;28;20274;-61
2022/08/23 11:41:18;;;;;;;1.88;1.60;;;;;;;;;;5051189;28;20270;-62
2022/08/23 11:43:48;;;;;;;1.88;1.63;;;;;;;;;;5049208;28;20219;-61
2022/08/23 11:46:30;;;;;;;3.78;1.70;;;;;;;;;;5049820;28;20221;-62
2022/08/23 11:49:16;;;;;;;3.00;1.80;;;;;;;;;;5050202;28;20297;-61
2022/08/23 11:51:47;;;;;;;2.30;1.60;;;;;;;;;;5045467;28;20273;-61
2022/08/23 11:54:26;;;;;;;2.75;1.58;;;;;;;;;;5037953;28;20205;-60
2022/08/23 11:56:54;;;;;;;1.83;1.73;;;;;;;;;;5040817;28;20205;-62
2022/08/23 11:59:39;;;;;;;2.50;1.52;;;;;;;;;;5037664;28;20750;-62
2022/08/23 12:02:30;;;;;;;3.83;1.60;;;;;;;;;;5042628;28;20211;-62
2022/08/23 12:05:00;;;;;;;2.70;1.70;;;;;;;;;;5041467;28;20211;-61
2022/08/23 12:08:06;;;;;;;3.00;1.60;;;;;;;;;;5068301;28;21717;-61
2022/08/23 12:10:40;;;;;;;2.20;1.63;;;;;;;;;;5027995;28;20880;-62
2022/08/23 12:13:19;;;;;;;1.65;1.55;;;;;;;;;;5060532;28;20210;-62
2022/08/23 12:16:05;;;;;;;6.38;2.08;;;;;;;;;;5086222;28;20212;-62
2022/08/23 12:18:48;;;;;;;1.63;1.50;;;;;;;;;;5069426;28;21138;-62
2022/08/23 12:21:20;;;;;;;1.70;1.60;;;;;;;;;;5047627;28;20256;-63
2022/08/23 12:23:50;;;;;;;3.25;1.63;;;;;;;;;;5050201;28;20201;-62
2022/08/23 12:26:22;;;;;;;3.00;1.40;;;;;;;;;;5058639;28;20252;-60
2022/08/23 12:28:56;;;;;;;2.28;1.65;;;;;;;;;;5051283;28;20737;-63
2022/08/23 12:31:29;;;;;;;1.95;1.63;;;;;;;;;;5051728;28;20278;-60
2022/08/23 12:33:56;;;;;;;3.38;1.38;;;;;;;;;;5051221;28;20212;-61
2022/08/23 12:36:33;;;;;;;2.08;1.73;;;;;;;;;;5047998;28;20876;-61
2022/08/23 12:39:07;;;;;;;2.35;1.70;;;;;;;;;;5063979;28;20204;-61
2022/08/23 12:41:48;;;;;;;2.00;1.33;;;;;;;;;;5072001;28;20220;-61
2022/08/23 12:44:20;;;;;;;4.03;1.70;;;;;;;;;;5052154;28;20179;-61
2022/08/23 12:46:49;;;;;;;3.38;1.95;;;;;;;;;;5052081;28;20266;-62
2022/08/23 12:49:30;;;;;;;2.80;1.88;;;;;;;;;;5047911;28;20229;-61
2022/08/23 12:52:00;;;;;;;4.47;1.70;;;;;;;;;;5046512;28;20217;-61
2022/08/23 12:54:36;;;;;;;1.95;1.85;;;;;;;;;;5065537;28;20209;-61
2022/08/23 12:57:10;;;;;;;2.45;1.80;;;;;;;;;;5047353;28;20208;-61
2022/08/23 12:59:56;;;;;;;4.00;1.75;;;;;;;;;;5048779;28;20786;-61
2022/08/23 13:02:46;;;;;;;3.40;1.83;;;;;;;;;;5069915;28;20205;-60
2022/08/23 13:05:16;;;;;;;3.00;1.67;;;;;;;;;;5050655;28;20299;-62
2022/08/23 13:07:44;;;;;;;2.13;1.80;;;;;;;;;;5056302;28;20225;-62
2022/08/23 13:10:13;;;;;;;2.08;1.58;;;;;;;;;;5064192;28;20232;-62
2022/08/23 13:12:41;;;;;;;3.30;1.73;;;;;;;;;;5070580;28;20364;-61
2022/08/23 13:15:09;;;;;;;2.63;1.65;;;;;;;;;;5060403;28;20653;-63
2022/08/23 13:17:41;;;;;;;2.85;1.90;;;;;;;;;;5067508;28;20200;-61
2022/08/23 13:20:09;;;;;;;5.15;1.92;;;;;;;;;;5050205;28;20237;-61
2022/08/23 13:22:37;;;;;;;1.65;1.40;;;;;;;;;;5049095;28;20648;-64
2022/08/23 13:25:24;;;;;;;1.90;1.63;;;;;;;;;;5069633;28;20213;-61
2022/08/23 13:27:57;;;;;;;3.38;1.92;;;;;;;;;;5048761;28;20698;-62
2022/08/23 13:30:28;;;;;;;3.42;1.73;;;;;;;;;;5063003;28;20229;-62
2022/08/23 13:33:08;;;;;;;2.65;1.70;;;;;;;;;;5048760;28;20206;-61
2022/08/23 13:35:42;;;;;;;2.17;1.48;;;;;;;;;;5046738;28;20205;-60
2022/08/23 13:38:17;;;;;;;5.30;1.77;;;;;;;;;;5049736;28;20305;-62
2022/08/23 13:40:48;;;;;;;3.00;1.73;;;;;;;;;;5048416;28;20583;-61
2022/08/23 13:43:20;;;;;;;4.57;1.70;;;;;;;;;;5050654;28;20678;-61
2022/08/23 13:45:49;;;;;;;2.70;1.60;;;;;;;;;;5055031;28;20213;-62
2022/08/23 13:48:33;;;;;;;1.83;1.50;;;;;;;;;;5050523;28;20209;-62
2022/08/23 13:51:36;;;;;;;1.75;1.60;;;;;;;;;;5047131;28;20225;-61
2022/08/23 13:54:06;;;;;;;1.73;1.63;;;;;;;;;;5015715;28;20206;-61
2022/08/23 13:56:36;;;;;;;1.95;1.70;;;;;;;;;;5051926;28;20246;-61
2022/08/23 13:59:22;;;;;;;4.47;2.13;;;;;;;;;;5046585;28;20200;-60
2022/08/23 14:02:02;;;;;;;3.90;1.80;;;;;;;;;;5048613;28;20331;-61
2022/08/23 14:04:29;;;;;;;1.60;1.50;;;;;;;;;;5051477;28;20255;-60
2022/08/23 14:06:57;;;;;;;2.65;2.05;;;;;;;;;;5064785;28;20240;-61
2022/08/23 14:09:25;;;;;;;3.13;1.92;;;;;;;;;;5040559;28;20212;-61
2022/08/23 14:11:57;;;;;;;3.70;1.80;;;;;;;;;;5069793;28;20862;-60
2022/08/23 14:14:25;;;;;;;3.72;2.10;;;;;;;;;;5065480;28;20222;-62
2022/08/23 14:16:53;;;;;;;3.55;1.67;;;;;;;;;;5068515;28;20197;-61
2022/08/23 14:19:21;;;;;;;2.15;1.83;;;;;;;;;;5060777;28;20235;-61
2022/08/23 14:22:08;;;;;;;3.92;1.80;;;;;;;;;;5077005;28;20228;-61
2022/08/23 14:24:35;;;;;;;2.03;1.80;;;;;;;;;;5055261;28;20696;-61
2022/08/23 14:27:03;;;;;;;3.88;2.00;;;;;;;;;;5078070;28;20241;-60
2022/08/23 14:29:33;;;;;;;5.22;1.90;;;;;;;;;;5059804;28;20196;-60
2022/08/23 14:32:01;;;;;;;4.78;1.80;;;;;;;;;;5052159;28;20765;-61
2022/08/23 14:34:29;;;;;;;2.20;1.60;;;;;;;;;;5057363;28;20204;-61
2022/08/23 14:36:57;;;;;;;3.22;1.83;;;;;;;;;;5050314;28;20239;-61
2022/08/23 14:39:44;;;;;;;5.00;1.95;;;;;;;;;;5065651;28;20231;-61
2022/08/23 14:42:12;;;;;;;3.17;1.88;;;;;;;;;;5045556;28;20213;-60
2022/08/23 14:44:40;;;;;;;2.92;1.70;;;;;;;;;;5054651;28;20219;-61
2022/08/23 14:47:08;;;;;;;3.63;1.85;;;;;;;;;;5056296;28;20470;-61
2022/08/23 14:49:35;;;;;;;2.00;1.70;;;;;;;;;;5044655;28;20455;-62
2022/08/23 14:52:03;;;;;;;4.38;1.90;;;;;;;;;;5047984;28;20269;-62
2022/08/23 14:54:30;;;;;;;3.00;1.70;;;;;;;;;;5045468;28;20232;-62
2022/08/23 14:56:58;;;;;;;3.17;1.60;;;;;;;;;;5041996;28;20900;-61
2022/08/23 14:59:26;;;;;;;1.98;1.70;;;;;;;;;;5044939;28;20212;-61
2022/08/23 15:01:54;;;;;;;3.67;1.90;;;;;;;;;;5045308;28;20220;-62
2022/08/23 15:04:23;;;;;;;3.08;1.77;;;;;;;;;;5043937;28;20207;-61
2022/08/23 15:06:51;;;;;;;2.35;1.90;;;;;;;;;;5045635;28;20280;-61
2022/08/23 15:09:38;;;;;;;3.67;1.77;;;;;;;;;;5057323;28;20231;-61
2022/08/23 15:12:06;;;;;;;2.70;1.80;;;;;;;;;;5061392;28;20228;-61
2022/08/23 15:14:53;;;;;;;2.85;1.70;;;;;;;;;;5086163;28;20670;-61
2022/08/23 15:17:23;;;;;;;3.28;1.50;;;;;;;;;;5066653;28;20212;-62
2022/08/23 15:19:57;;;;;;;1.70;1.60;;;;;;;;;;5050572;28;20216;-61